createdAt,value
2022-12-08T00:01:24.987Z,12.38
2022-12-08T00:03:52.820Z,13.25
2022-12-08T00:06:47.013Z,13.07
2022-12-08T00:09:23.378Z,14.25
2022-12-08T00:11:55.272Z,9.65
2022-12-08T00:14:40.775Z,14.77
2022-12-08T00:17:09.978Z,14.40
2022-12-08T00:19:38.997Z,14.25
2022-12-08T00:22:08.856Z,12.02
2022-12-08T00:24:40.898Z,14.07
2022-12-08T00:27:09.747Z,16.08
2022-12-08T00:29:37.675Z,13.27
2022-12-08T00:32:05.723Z,14.18
2022-12-08T00:34:33.443Z,14.80
2022-12-08T00:37:00.769Z,15.82
2022-12-08T00:39:28.084Z,13.75
2022-12-08T00:42:13.465Z,13.88
2022-12-08T00:44:45.068Z,13.73
2022-12-08T00:47:13.915Z,15.35
2022-12-08T00:49:41.602Z,15.63
2022-12-08T00:52:08.947Z,14.98
2022-12-08T00:54:36.246Z,9.43
2022-12-08T00:57:04.020Z,14.77
2022-12-08T00:59:31.330Z,12.30
2022-12-08T01:01:58.621Z,13.73
2022-12-08T01:04:26.145Z,14.65
2022-12-08T01:06:53.486Z,14.73
2022-12-08T01:09:20.835Z,12.82
2022-12-08T01:11:48.292Z,14.50
2022-12-08T01:14:15.689Z,13.15
2022-12-08T01:16:43.011Z,13.20
2022-12-08T01:19:12.896Z,12.32
2022-12-08T01:21:41.067Z,13.80
2022-12-08T01:24:14.890Z,12.50
2022-12-08T01:26:42.222Z,13.63
2022-12-08T01:29:10.352Z,15.52
2022-12-08T01:31:39.417Z,13.88
2022-12-08T01:34:07.434Z,13.48
2022-12-08T01:36:37.228Z,13.90
2022-12-08T01:39:07.057Z,14.98
2022-12-08T01:41:37.436Z,13.88
2022-12-08T01:44:16.485Z,11.73
2022-12-08T01:46:45.612Z,14.18
2022-12-08T01:49:20.985Z,14.88
2022-12-08T01:52:13.124Z,15.38
2022-12-08T01:54:53.808Z,13.10
2022-12-08T01:57:25.443Z,13.93
2022-12-08T02:00:14.069Z,13.23
2022-12-08T02:03:00.289Z,15.25
2022-12-08T02:05:33.199Z,15.02
2022-12-08T02:08:04.422Z,11.07
2022-12-08T02:10:35.214Z,15.65
2022-12-08T02:13:04.541Z,13.80
2022-12-08T02:15:57.315Z,14.63
2022-12-08T02:18:50.457Z,16.23
2022-12-08T02:21:48.081Z,15.23
2022-12-08T02:24:44.360Z,12.93
2022-12-08T02:27:30.812Z,14.98
2022-12-08T02:30:31.932Z,13.65
2022-12-08T02:33:36.690Z,14.70
2022-12-08T02:36:18.884Z,12.80
2022-12-08T02:38:56.190Z,14.25
2022-12-08T02:41:41.933Z,10.82
2022-12-08T02:44:28.014Z,13.15
2022-12-08T02:47:12.847Z,10.75
2022-12-08T02:49:40.312Z,13.45
2022-12-08T02:52:13.512Z,13.90
2022-12-08T02:54:46.452Z,13.45
2022-12-08T02:57:32.460Z,13.48
2022-12-08T03:00:15.875Z,16.27
2022-12-08T03:03:16.888Z,13.93
2022-12-08T03:06:12.767Z,16.63
2022-12-08T03:08:51.170Z,14.40
2022-12-08T03:11:41.590Z,13.65
2022-12-08T03:14:14.227Z,15.13
2022-12-08T03:16:45.721Z,15.63
2022-12-08T03:19:20.036Z,15.38
2022-12-08T03:21:51.699Z,14.55
2022-12-08T03:24:21.685Z,13.80
2022-12-08T03:26:57.024Z,14.73
2022-12-08T03:29:24.926Z,16.25
2022-12-08T03:31:59.053Z,14.95
2022-12-08T03:34:29.007Z,15.82
2022-12-08T03:36:56.441Z,15.70
2022-12-08T03:39:23.764Z,16.23
2022-12-08T03:41:51.056Z,16.02
2022-12-08T03:44:18.351Z,15.23
2022-12-08T03:46:45.941Z,15.45
2022-12-08T03:49:13.182Z,16.55
2022-12-08T03:51:40.503Z,13.95
2022-12-08T03:54:07.781Z,16.52
2022-12-08T03:56:38.023Z,14.40
2022-12-08T03:59:06.815Z,15.60
2022-12-08T04:01:34.493Z,15.48
2022-12-08T04:04:01.928Z,15.52
2022-12-08T04:06:29.232Z,17.08
2022-12-08T04:08:56.528Z,16.50
2022-12-08T04:11:23.824Z,16.65
2022-12-08T04:13:51.557Z,17.83
2022-12-08T04:16:22.011Z,17.85
2022-12-08T04:18:49.400Z,16.85
2022-12-08T04:21:17.315Z,16.98
2022-12-08T04:23:45.172Z,16.20
2022-12-08T04:26:13.727Z,17.05
2022-12-08T04:28:41.052Z,17.30
2022-12-08T04:31:08.515Z,16.27
2022-12-08T04:33:35.960Z,16.08
2022-12-08T04:36:04.978Z,16.25
2022-12-08T04:38:32.966Z,15.82
2022-12-08T04:41:00.584Z,18.25
2022-12-08T04:43:27.956Z,17.73
2022-12-08T04:45:55.421Z,17.20
2022-12-08T04:48:23.253Z,14.70
2022-12-08T04:50:51.531Z,11.48
2022-12-08T04:53:20.058Z,16.52
2022-12-08T04:55:49.573Z,19.17
2022-12-08T04:58:18.731Z,18.85
2022-12-08T05:00:46.791Z,18.92
2022-12-08T05:03:14.669Z,19.73
2022-12-08T05:05:42.899Z,16.63
2022-12-08T05:08:10.867Z,16.83
2022-12-08T05:10:38.798Z,17.48
2022-12-08T05:13:06.093Z,13.85
2022-12-08T05:15:33.346Z,15.68
2022-12-08T05:18:00.685Z,18.13
2022-12-08T05:20:27.947Z,20.08
2022-12-08T05:22:55.186Z,18.10
2022-12-08T05:25:22.569Z,18.70
2022-12-08T05:27:49.847Z,13.82
2022-12-08T05:30:17.255Z,16.42
2022-12-08T05:32:44.486Z,17.98
2022-12-08T05:35:11.734Z,16.33
2022-12-08T05:37:39.148Z,17.67
2022-12-08T05:40:07.552Z,16.67
2022-12-08T05:42:35.641Z,16.90
2022-12-08T05:45:02.916Z,12.02
2022-12-08T05:47:34.518Z,17.48
2022-12-08T05:50:04.238Z,15.77
2022-12-08T05:52:32.514Z,18.33
2022-12-08T05:55:00.264Z,16.63
2022-12-08T05:57:27.570Z,17.27
2022-12-08T05:59:57.047Z,17.40
2022-12-08T06:02:24.763Z,16.27
2022-12-08T06:04:52.165Z,14.90
2022-12-08T06:07:19.658Z,19.25
2022-12-08T06:09:47.197Z,16.05
2022-12-08T06:12:16.133Z,19.30
2022-12-08T06:14:43.571Z,13.88
2022-12-08T06:17:11.054Z,17.02
2022-12-08T06:19:38.392Z,16.17
2022-12-08T06:22:05.676Z,19.35
2022-12-08T06:24:32.911Z,17.55
2022-12-08T06:27:00.594Z,18.42
2022-12-08T06:29:27.756Z,16.35
2022-12-08T06:31:55.094Z,16.52
2022-12-08T06:34:22.428Z,16.63
2022-12-08T06:36:49.661Z,17.60
2022-12-08T06:39:16.893Z,18.10
2022-12-08T06:42:02.698Z,17.63
2022-12-08T06:44:29.915Z,15.93
2022-12-08T06:46:57.157Z,17.58
2022-12-08T06:49:24.411Z,19.63
2022-12-08T06:51:52.064Z,16.88
2022-12-08T06:54:19.215Z,19.17
2022-12-08T06:56:46.437Z,19.85
2022-12-08T06:59:13.709Z,16.83
2022-12-08T07:01:41.014Z,22.05
2022-12-08T07:04:08.451Z,16.00
2022-12-08T07:06:35.902Z,17.92
2022-12-08T07:09:04.059Z,17.48
2022-12-08T07:11:31.402Z,17.90
2022-12-08T07:13:59.028Z,17.67
2022-12-08T07:16:26.391Z,16.20
2022-12-08T07:18:53.746Z,18.02
2022-12-08T07:21:21.222Z,16.88
2022-12-08T07:23:54.410Z,16.60
2022-12-08T07:26:24.991Z,15.98
2022-12-08T07:28:52.306Z,18.92
2022-12-08T07:31:25.494Z,19.58
2022-12-08T07:33:53.218Z,18.50
2022-12-08T07:36:20.677Z,17.52
2022-12-08T07:38:48.988Z,18.30
2022-12-08T07:41:18.159Z,17.67
2022-12-08T07:43:45.601Z,15.43
2022-12-08T07:46:18.585Z,17.63
2022-12-08T07:48:46.416Z,18.98
2022-12-08T07:51:15.402Z,18.70
2022-12-08T07:53:51.560Z,19.90
2022-12-08T07:56:21.300Z,15.80
2022-12-08T07:58:48.795Z,17.27
2022-12-08T08:01:27.979Z,15.50
2022-12-08T08:03:57.373Z,18.50
2022-12-08T08:06:24.976Z,16.38
2022-12-08T08:08:52.254Z,17.63
2022-12-08T08:11:21.516Z,16.58
2022-12-08T08:13:50.190Z,18.80
2022-12-08T08:16:18.435Z,18.73
2022-12-08T08:18:48.953Z,16.70
2022-12-08T08:21:46.881Z,18.33
2022-12-08T08:24:04.982Z,17.98
2022-12-08T08:26:32.329Z,19.65
2022-12-08T08:28:59.726Z,18.60
2022-12-08T08:31:27.358Z,21.00
2022-12-08T08:33:55.948Z,18.88
2022-12-08T08:36:23.435Z,19.13
2022-12-08T08:38:50.719Z,20.27
2022-12-08T08:41:17.936Z,18.40
2022-12-08T08:43:45.553Z,18.45
2022-12-08T08:46:12.901Z,17.63
2022-12-08T08:48:40.654Z,17.50
2022-12-08T08:51:10.684Z,19.27
2022-12-08T08:53:38.374Z,18.58
2022-12-08T08:56:11.217Z,17.88
2022-12-08T08:58:38.500Z,17.85
2022-12-08T09:01:05.991Z,18.05
2022-12-08T09:03:33.276Z,19.48
2022-12-08T09:06:00.710Z,18.30
2022-12-08T09:08:28.575Z,18.67
2022-12-08T09:10:55.933Z,19.23
2022-12-08T09:13:23.564Z,16.20
2022-12-08T09:15:50.867Z,19.15
2022-12-08T09:18:18.159Z,17.10
2022-12-08T09:20:45.459Z,18.52
2022-12-08T09:23:12.716Z,17.42
2022-12-08T09:25:40.717Z,17.60
2022-12-08T09:28:08.336Z,16.45
2022-12-08T09:30:35.543Z,17.17
2022-12-08T09:33:03.394Z,16.27
2022-12-08T09:35:31.164Z,19.90
2022-12-08T09:37:58.353Z,19.80
2022-12-08T09:40:26.867Z,17.80
2022-12-08T09:43:02.040Z,19.60
2022-12-08T09:45:34.601Z,18.20
2022-12-08T09:48:11.979Z,20.88
2022-12-08T09:50:41.210Z,19.92
2022-12-08T09:53:11.271Z,19.63
2022-12-08T09:55:50.497Z,17.85
2022-12-08T09:58:51.807Z,22.20
2022-12-08T10:01:21.167Z,23.30
2022-12-08T10:03:48.766Z,28.10
2022-12-08T10:06:18.814Z,22.83
2022-12-08T10:08:58.853Z,23.38
2022-12-08T10:11:36.445Z,22.77
2022-12-08T10:14:19.619Z,23.73
2022-12-08T10:16:52.040Z,24.42
2022-12-08T10:19:23.392Z,23.73
2022-12-08T10:21:53.119Z,26.10
2022-12-08T10:24:32.675Z,16.83
2022-12-08T10:27:01.561Z,20.38
2022-12-08T10:29:28.952Z,20.40
2022-12-08T10:32:00.024Z,19.80
2022-12-08T10:34:27.400Z,21.98
2022-12-08T10:36:57.113Z,20.00
2022-12-08T10:39:45.871Z,17.13
2022-12-08T10:42:22.249Z,17.15
2022-12-08T10:44:55.188Z,17.90
2022-12-08T10:47:25.108Z,20.63
2022-12-08T10:50:19.226Z,19.50
2022-12-08T10:52:58.422Z,20.48
2022-12-08T10:55:26.412Z,18.65
2022-12-08T10:57:53.676Z,18.02
2022-12-08T11:00:27.199Z,18.83
2022-12-08T11:02:56.192Z,19.60
2022-12-08T11:05:28.100Z,18.30
2022-12-08T11:07:56.449Z,17.05
2022-12-08T11:10:35.481Z,16.85
2022-12-08T11:13:06.272Z,16.83
2022-12-08T11:15:39.951Z,18.40
2022-12-08T11:18:20.229Z,17.38
2022-12-08T11:20:47.497Z,15.93
2022-12-08T11:23:21.419Z,16.42
2022-12-08T11:25:50.377Z,17.58
2022-12-08T11:28:24.638Z,18.35
2022-12-08T11:31:00.297Z,18.95
2022-12-08T11:33:29.095Z,17.48
2022-12-08T11:35:56.328Z,19.88
2022-12-08T11:38:26.497Z,19.55
2022-12-08T11:41:15.737Z,19.80
2022-12-08T11:44:01.851Z,19.80
2022-12-08T11:46:48.767Z,19.67
2022-12-08T11:49:18.049Z,17.92
2022-12-08T11:51:53.041Z,18.88
2022-12-08T11:54:34.298Z,17.55
2022-12-08T11:57:04.811Z,15.98
2022-12-08T11:59:46.100Z,17.52
2022-12-08T12:02:25.085Z,16.77
2022-12-08T12:05:02.680Z,15.45
2022-12-08T12:07:56.231Z,17.83
2022-12-08T12:10:40.128Z,16.52
2022-12-08T12:13:10.397Z,16.40
2022-12-08T12:16:08.775Z,15.80
2022-12-08T12:18:50.883Z,14.85
2022-12-08T12:21:32.558Z,16.45
2022-12-08T12:24:23.779Z,16.55
2022-12-08T12:26:56.369Z,14.98
2022-12-08T12:29:28.173Z,14.50
2022-12-08T12:31:59.286Z,15.32
2022-12-08T12:34:30.707Z,15.32
2022-12-08T12:37:07.199Z,14.27
2022-12-08T12:39:49.143Z,15.00
2022-12-08T12:42:37.200Z,14.57
2022-12-08T12:45:16.796Z,13.88
2022-12-08T12:47:48.625Z,11.77
2022-12-08T12:50:35.107Z,13.13
2022-12-08T12:53:20.439Z,13.45
2022-12-08T12:55:56.945Z,12.77
2022-12-08T12:58:30.385Z,6.32
2022-12-08T13:01:13.111Z,7.60
2022-12-08T13:03:43.478Z,6.25
2022-12-08T13:06:14.849Z,6.85
2022-12-08T13:08:52.125Z,7.38
2022-12-08T13:11:20.167Z,7.38
2022-12-08T13:13:57.777Z,7.38
2022-12-08T13:16:27.641Z,7.38
2022-12-08T13:19:02.264Z,6.68
2022-12-08T13:21:38.191Z,6.63
2022-12-08T13:24:17.003Z,6.38
2022-12-08T13:27:04.272Z,5.50
2022-12-08T13:29:37.244Z,6.22
2022-12-08T13:32:24.932Z,7.05
2022-12-08T13:34:57.784Z,6.57
2022-12-08T13:37:54.444Z,6.00
2022-12-08T13:40:30.049Z,7.10
2022-12-08T13:43:06.255Z,6.80
2022-12-08T13:46:34.647Z,6.78
2022-12-08T13:55:12.974Z,7.20
2022-12-08T13:57:30.324Z,6.05
2022-12-08T14:00:06.657Z,6.20
2022-12-08T14:02:48.257Z,5.70
2022-12-08T14:05:19.780Z,6.00
2022-12-08T14:08:30.120Z,5.47
2022-12-08T14:11:07.004Z,6.50
2022-12-08T14:13:34.784Z,6.53
2022-12-08T14:16:02.348Z,6.18
2022-12-08T14:18:31.555Z,5.78
2022-12-08T14:21:21.069Z,5.60
2022-12-08T14:23:48.753Z,5.72
2022-12-08T14:26:16.069Z,5.80
2022-12-08T14:28:45.192Z,6.13
2022-12-08T14:31:14.633Z,5.88
2022-12-08T14:33:43.025Z,6.88
2022-12-08T14:36:12.520Z,6.35
2022-12-08T14:38:40.020Z,6.13
2022-12-08T14:41:11.591Z,5.35
2022-12-08T14:43:40.969Z,6.20
2022-12-08T14:46:22.836Z,6.95
2022-12-08T14:48:50.426Z,5.65
2022-12-08T14:51:20.846Z,5.30
2022-12-08T14:53:58.808Z,5.15
2022-12-08T14:56:32.953Z,5.30
2022-12-08T14:59:17.515Z,5.43
2022-12-08T15:01:46.149Z,5.65
2022-12-08T15:04:13.508Z,5.07
2022-12-08T15:06:52.910Z,5.82
2022-12-08T15:09:40.952Z,5.45
2022-12-08T15:12:14.181Z,6.25
2022-12-08T15:14:54.972Z,5.63
2022-12-08T15:17:42.572Z,4.82
2022-12-08T15:20:35.382Z,4.90
2022-12-08T15:23:03.773Z,4.82
2022-12-08T15:25:31.541Z,5.47
2022-12-08T15:27:58.808Z,4.60
2022-12-08T15:30:28.944Z,5.50
2022-12-08T15:32:56.476Z,5.03
2022-12-08T15:35:23.926Z,5.50
2022-12-08T15:37:51.332Z,6.75
2022-12-08T15:40:21.359Z,5.22
2022-12-08T15:42:49.264Z,5.60
2022-12-08T15:45:17.351Z,6.05
2022-12-08T15:47:45.416Z,5.55
2022-12-08T15:50:17.676Z,5.90
2022-12-08T15:52:45.244Z,5.82
2022-12-08T15:55:17.684Z,5.60
2022-12-08T16:00:52.560Z,6.72
2022-12-08T16:09:21.482Z,5.53
2022-12-08T16:12:09.428Z,4.45
2022-12-08T16:17:26.667Z,3.65
2022-12-08T16:19:54.709Z,4.53
2022-12-08T16:25:20.377Z,4.95
2022-12-08T16:28:01.417Z,4.33
2022-12-08T16:30:30.754Z,6.40
2022-12-08T16:32:58.100Z,6.13
2022-12-08T16:35:25.386Z,6.25
2022-12-08T16:37:52.667Z,5.18
2022-12-08T16:40:20.166Z,5.22
2022-12-08T16:42:49.745Z,5.57
2022-12-08T16:45:29.254Z,6.00
2022-12-08T16:47:59.429Z,5.05
2022-12-08T16:50:30.009Z,5.47
2022-12-08T16:52:58.374Z,5.38
2022-12-08T16:55:26.176Z,6.65
2022-12-08T16:57:53.597Z,6.28
2022-12-08T17:00:27.921Z,6.47
2022-12-08T17:02:55.725Z,6.60
2022-12-08T17:05:25.039Z,7.03
2022-12-08T17:07:53.775Z,7.18
2022-12-08T17:10:25.711Z,6.20
2022-12-08T17:12:53.839Z,7.45
2022-12-08T17:15:24.480Z,7.63
2022-12-08T17:17:52.170Z,7.70
2022-12-08T17:20:22.501Z,7.75
2022-12-08T17:22:50.111Z,7.28
2022-12-08T17:25:17.426Z,8.10
2022-12-08T17:27:44.734Z,10.15
2022-12-08T17:30:15.568Z,8.27
2022-12-08T17:32:43.207Z,10.05
2022-12-08T17:35:11.388Z,8.02
2022-12-08T17:37:38.796Z,8.85
2022-12-08T17:40:06.909Z,10.77
2022-12-08T17:42:34.315Z,9.85
2022-12-08T17:45:01.519Z,11.65
2022-12-08T17:47:29.494Z,9.88
2022-12-08T17:49:56.953Z,9.73
2022-12-08T17:52:24.329Z,9.10
2022-12-08T17:54:51.662Z,10.20
2022-12-08T17:57:18.972Z,9.65
2022-12-08T17:59:46.189Z,9.10
2022-12-08T18:02:13.583Z,10.45
2022-12-08T18:04:40.899Z,9.45
2022-12-08T18:07:08.156Z,10.00
2022-12-08T18:09:35.435Z,10.63
2022-12-08T18:12:02.831Z,11.38
2022-12-08T18:14:30.127Z,11.65
2022-12-08T18:16:57.970Z,14.02
2022-12-08T18:19:26.233Z,15.93
2022-12-08T18:21:53.500Z,13.65
2022-12-08T18:24:23.242Z,16.20
2022-12-08T18:26:52.352Z,12.30
2022-12-08T18:29:20.893Z,10.98
2022-12-08T18:31:48.633Z,10.93
2022-12-08T18:34:16.206Z,12.43
2022-12-08T18:36:43.477Z,13.20
2022-12-08T18:39:29.606Z,13.38
2022-12-08T18:41:58.470Z,13.73
2022-12-08T18:44:25.859Z,13.65
2022-12-08T18:46:53.286Z,18.02
2022-12-08T18:49:20.837Z,14.00
2022-12-08T18:51:48.240Z,18.42
2022-12-08T18:54:15.683Z,14.88
2022-12-08T18:56:43.043Z,18.17
2022-12-08T18:59:12.211Z,20.67
2022-12-08T19:01:40.712Z,17.42
2022-12-08T19:04:27.913Z,17.15
2022-12-08T19:06:57.113Z,16.88
2022-12-08T19:09:26.799Z,18.35
2022-12-08T19:11:55.080Z,18.65
2022-12-08T19:14:27.724Z,16.38
2022-12-08T19:16:59.110Z,15.90
2022-12-08T19:19:27.667Z,14.88
2022-12-08T19:21:55.319Z,15.93
2022-12-08T19:24:23.046Z,16.15
2022-12-08T19:26:50.350Z,15.15
2022-12-08T19:29:18.083Z,14.98
2022-12-08T19:31:45.889Z,15.25
2022-12-08T19:34:14.173Z,17.38
2022-12-08T19:36:42.605Z,17.35
2022-12-08T19:39:39.882Z,16.13
2022-12-08T19:42:34.955Z,17.52
2022-12-08T19:45:12.449Z,17.27
2022-12-08T19:47:40.520Z,18.20
2022-12-08T19:50:28.164Z,17.42
2022-12-08T19:52:56.054Z,19.38
2022-12-08T19:55:24.419Z,16.80
2022-12-08T19:57:52.650Z,17.05
2022-12-08T20:00:20.992Z,15.63
2022-12-08T20:02:48.454Z,16.52
2022-12-08T20:05:16.109Z,18.70
2022-12-08T20:07:43.555Z,16.38
2022-12-08T20:10:22.257Z,15.73
2022-12-08T20:12:49.582Z,17.13
2022-12-08T20:15:16.907Z,17.98
2022-12-08T20:17:44.292Z,16.92
2022-12-08T20:20:13.105Z,15.30
2022-12-08T20:22:40.619Z,16.23
2022-12-08T20:25:12.780Z,15.35
2022-12-08T20:27:41.295Z,16.20
2022-12-08T20:30:14.963Z,16.15
2022-12-08T20:32:44.981Z,14.68
2022-12-08T20:35:12.329Z,17.50
2022-12-08T20:37:39.609Z,16.60
2022-12-08T20:40:07.692Z,18.17
2022-12-08T20:42:34.968Z,18.38
2022-12-08T20:45:02.409Z,18.13
2022-12-08T20:47:29.716Z,17.88
2022-12-08T20:49:57.056Z,17.77
2022-12-08T20:52:24.433Z,18.63
2022-12-08T20:54:51.689Z,18.95
2022-12-08T20:57:19.109Z,18.85
2022-12-08T20:59:46.355Z,18.38
2022-12-08T21:02:13.759Z,17.70
2022-12-08T21:04:41.373Z,22.85
2022-12-08T21:07:09.074Z,20.58
2022-12-08T21:09:36.966Z,21.92
2022-12-08T21:12:04.702Z,23.30
2022-12-08T21:14:32.148Z,20.73
2022-12-08T21:16:59.604Z,20.90
2022-12-08T21:19:27.156Z,21.23
2022-12-08T21:21:54.526Z,20.17
2022-12-08T21:24:21.927Z,19.60
2022-12-08T21:26:49.330Z,19.55
2022-12-08T21:29:16.975Z,18.17
2022-12-08T21:31:44.506Z,20.20
2022-12-08T21:34:12.123Z,20.05
2022-12-08T21:36:39.808Z,20.92
2022-12-08T21:39:12.764Z,22.42
2022-12-08T21:41:59.531Z,20.30
2022-12-08T21:44:26.852Z,20.80
2022-12-08T21:46:54.274Z,20.38
2022-12-08T21:49:21.679Z,20.27
2022-12-08T21:51:49.093Z,21.73
2022-12-08T21:54:19.143Z,19.88
2022-12-08T21:56:48.721Z,20.52
2022-12-08T21:59:17.730Z,19.27
2022-12-08T22:01:45.347Z,19.60
2022-12-08T22:04:17.504Z,20.50
2022-12-08T22:06:45.226Z,18.40
2022-12-08T22:09:15.240Z,18.30
2022-12-08T22:11:44.076Z,20.83
2022-12-08T22:14:14.923Z,21.55
2022-12-08T22:16:43.449Z,20.67
2022-12-08T22:19:12.083Z,20.13
2022-12-08T22:21:39.640Z,21.92
2022-12-08T22:24:07.233Z,19.02
2022-12-08T22:26:34.845Z,20.35
2022-12-08T22:29:02.196Z,20.52
2022-12-08T22:31:30.946Z,20.48
2022-12-08T22:33:59.522Z,20.08
2022-12-08T22:36:28.178Z,21.38
2022-12-08T22:38:56.477Z,20.90
2022-12-08T22:41:24.441Z,19.15
2022-12-08T22:43:51.900Z,18.42
2022-12-08T22:46:22.669Z,19.10
2022-12-08T22:48:51.488Z,17.10
2022-12-08T22:51:19.353Z,16.83
2022-12-08T22:53:47.233Z,20.25
2022-12-08T22:56:15.999Z,19.65
2022-12-08T22:58:44.178Z,19.85
2022-12-08T23:01:30.347Z,20.58
2022-12-08T23:03:59.437Z,18.25
2022-12-08T23:06:28.550Z,18.75
2022-12-08T23:08:56.674Z,19.13
2022-12-08T23:11:29.758Z,18.20
2022-12-08T23:14:00.571Z,20.50
2022-12-08T23:16:28.703Z,20.60
2022-12-08T23:18:56.543Z,20.85
2022-12-08T23:21:23.975Z,20.75
2022-12-08T23:23:51.431Z,20.45
2022-12-08T23:26:22.460Z,18.40
2022-12-08T23:28:50.624Z,20.77
2022-12-08T23:31:18.908Z,22.30
2022-12-08T23:33:46.800Z,20.88
2022-12-08T23:36:15.528Z,20.10
2022-12-08T23:38:43.771Z,19.45
2022-12-08T23:41:14.268Z,18.70
2022-12-08T23:43:50.726Z,18.08
2022-12-08T23:46:21.075Z,18.65
2022-12-08T23:48:49.522Z,19.63
2022-12-08T23:51:17.697Z,19.75
2022-12-08T23:53:45.500Z,19.27
2022-12-08T23:56:15.040Z,18.63
2022-12-08T23:58:43.268Z,21.17
